Terminal Aerodrome Forecast
Issued by NWS

Home | Current Version | Previous Version | Text Only | Print | Product List | Glossary On
Versions: 1 2 3 4 5 6 7 8 9 10 11 12 13 14 15 16 17 18 19 20 21 22 23 24 25 26 27 28 29 30 31 32 33 34 35 36 37 38 39 40 41 42
000
FTUS42 KRAH 291243 AAA
TAFRWI
TAF AMD
KRWI 291243Z 2913/3012 05006KT 5SM RA BR BKN007 OVC060
     FM291500 01006KT 4SM -RA BR SCT007 OVC015
     FM292000 05008KT 2SM -RADZ BR SCT002 OVC006=

USA.gov is the U.S. government's official web portal to all federal, state and local government web resources and services.